Time;durP1;ratioP1;P1;durP2;ratioP2;P2;SDS_P1;SDS_P2;PMS_P1;PMS_P2;Temp;Humidity;BMP_temperature;BMP_pressure;BME280_temperature;BME280_humidity;BME280_pressure;Samples;Min_cycle;Max_cycle;Signal;HPM_P1;HPM_P2
2023/03/10 00:02:08;;;;;;;36.57;17.80;;;;;;;1.14;100.00;99167.22;7391633;19;20447;-35
2023/03/10 00:04:38;;;;;;;37.60;17.60;;;;;;;0.96;100.00;99162.00;7395067;19;20762;-32
2023/03/10 00:07:07;;;;;;;35.80;17.17;;;;;;;0.76;100.00;99158.38;7389193;19;20435;-34
2023/03/10 00:09:39;;;;;;;37.00;17.30;;;;;;;0.55;100.00;99143.69;7393988;19;21322;-32
2023/03/10 00:12:10;;;;;;;42.17;18.60;;;;;;;0.80;100.00;99139.97;7391138;19;20447;-33
2023/03/10 00:14:39;;;;;;;40.17;18.37;;;;;;;0.91;100.00;99123.66;7394908;19;20407;-32
2023/03/10 00:17:09;;;;;;;36.90;18.23;;;;;;;1.12;100.00;99120.53;7391162;19;20463;-36
2023/03/10 00:19:38;;;;;;;41.53;19.10;;;;;;;0.92;100.00;99116.94;7393507;19;20987;-33
2023/03/10 00:22:08;;;;;;;33.37;17.40;;;;;;;0.78;100.00;99100.94;7391233;19;20455;-33
2023/03/10 00:24:40;;;;;;;39.53;18.03;;;;;;;0.70;100.00;99097.97;7394592;19;20411;-34
2023/03/10 00:27:09;;;;;;;36.07;17.87;;;;;;;0.99;100.00;99077.47;7389435;19;20856;-33
2023/03/10 00:29:39;;;;;;;35.23;17.90;;;;;;;1.06;100.00;99072.81;7391757;19;20446;-34
2023/03/10 00:32:09;;;;;;;34.27;17.23;;;;;;;1.35;100.00;99067.50;7388678;19;20439;-38
2023/03/10 00:34:38;;;;;;;38.80;17.50;;;;;;;1.14;100.00;99050.34;7392160;19;20392;-32
2023/03/10 00:37:08;;;;;;;38.33;17.87;;;;;;;1.01;100.00;99037.78;7387206;19;20443;-35
2023/03/10 00:39:40;;;;;;;41.23;17.53;;;;;;;1.12;100.00;99026.53;7390598;19;20420;-34
2023/03/10 00:42:10;;;;;;;38.40;17.57;;;;;;;1.18;100.00;99019.22;7387930;19;20414;-35
2023/03/10 00:44:39;;;;;;;36.97;17.37;;;;;;;0.91;100.00;99009.38;7390526;19;20367;-35
2023/03/10 00:47:09;;;;;;;36.27;17.50;;;;;;;0.87;100.00;99001.53;7385843;19;20470;-34
2023/03/10 00:49:38;;;;;;;35.87;17.63;;;;;;;1.05;100.00;98992.31;7389911;19;20435;-37
2023/03/10 00:52:08;;;;;;;36.97;18.17;;;;;;;1.22;100.00;98992.28;7387909;19;20850;-32
2023/03/10 00:54:43;;;;;;;37.40;17.20;;;;;;;1.18;100.00;98981.09;7391615;19;20427;-33
2023/03/10 00:57:12;;;;;;;39.23;17.97;;;;;;;0.98;100.00;98977.56;7387680;19;20514;-33
2023/03/10 00:59:41;;;;;;;34.07;17.47;;;;;;;0.90;100.00;98968.66;7389711;19;20475;-33
2023/03/10 01:02:19;;;;;;;39.50;19.10;;;;;;;1.17;100.00;98966.66;7387627;19;20986;-32
2023/03/10 01:04:48;;;;;;;38.53;18.23;;;;;;;1.06;100.00;98955.97;7391209;19;20423;-34
2023/03/10 01:07:18;;;;;;;36.37;18.07;;;;;;;1.13;100.00;98946.09;7386673;19;20475;-36
2023/03/10 01:09:50;;;;;;;43.67;21.23;;;;;;;0.92;100.00;98931.53;7390431;19;20457;-34
2023/03/10 01:12:20;;;;;;;41.73;18.83;;;;;;;0.96;100.00;98932.56;7387541;19;21380;-32
2023/03/10 01:14:50;;;;;;;37.30;18.50;;;;;;;0.90;100.00;98923.81;7391303;19;20412;-34
2023/03/10 01:17:19;;;;;;;43.23;21.30;;;;;;;1.01;100.00;98910.78;7388313;19;20765;-33
2023/03/10 01:19:48;;;;;;;40.90;18.90;;;;;;;0.93;100.00;98910.41;7390241;19;20974;-33
2023/03/10 01:22:18;;;;;;;40.40;18.97;;;;;;;0.85;100.00;98899.84;7388058;19;20560;-36
2023/03/10 01:24:50;;;;;;;47.93;22.67;;;;;;;0.88;100.00;98897.47;7391653;19;20406;-33
2023/03/10 01:27:19;;;;;;;56.33;26.70;;;;;;;1.02;100.00;98887.16;7386835;19;20990;-33
2023/03/10 01:29:49;;;;;;;55.13;25.37;;;;;;;1.12;100.00;98883.41;7389261;19;20442;-31
2023/03/10 01:32:18;;;;;;;44.80;20.50;;;;;;;0.98;100.00;98873.44;7386445;19;20475;-33
2023/03/10 01:34:48;;;;;;;42.23;20.37;;;;;;;0.82;100.00;98866.69;7391310;19;20403;-34
2023/03/10 01:37:17;;;;;;;44.00;20.00;;;;;;;0.96;100.00;98871.59;7387566;19;20423;-37
2023/03/10 01:39:49;;;;;;;34.87;16.50;;;;;;;0.85;100.00;98864.31;7389830;19;20414;-36
2023/03/10 01:42:19;;;;;;;38.30;17.70;;;;;;;1.11;100.00;98867.28;7387101;19;20439;-33
2023/03/10 01:45:07;;;;;;;35.37;17.03;;;;;;;1.00;100.00;98854.03;7391249;19;21196;-32
2023/03/10 01:47:37;;;;;;;45.53;19.37;;;;;;;1.07;100.00;98842.50;7388331;19;20994;-33
2023/03/10 01:50:08;;;;;;;34.53;17.27;;;;;;;1.05;100.00;98847.53;7387721;19;20427;-34
2023/03/10 01:52:38;;;;;;;36.23;17.37;;;;;;;0.94;100.00;98843.59;7390163;19;20383;-33
2023/03/10 01:55:13;;;;;;;39.40;18.07;;;;;;;0.54;100.00;98829.75;7389476;19;20423;-37
2023/03/10 01:57:45;;;;;;;40.37;18.13;;;;;;;0.56;100.00;98842.53;7390530;19;20382;-35
2023/03/10 02:00:15;;;;;;;55.27;23.70;;;;;;;0.44;100.00;98837.69;7387298;19;20439;-35
2023/03/10 02:02:50;;;;;;;53.80;22.47;;;;;;;0.33;100.00;98822.78;7390413;19;20394;-35
2023/03/10 02:05:20;;;;;;;40.33;19.13;;;;;;;0.19;100.00;98818.66;7387374;19;20410;-34
2023/03/10 02:07:50;;;;;;;33.90;17.80;;;;;;;0.09;100.00;98818.19;7389435;19;20411;-32
2023/03/10 02:10:22;;;;;;;39.13;17.70;;;;;;;0.09;100.00;98810.56;7385484;19;21493;-35
2023/03/10 02:12:52;;;;;;;37.63;17.50;;;;;;;0.05;100.00;98806.13;7390957;19;21313;-33
2023/03/10 02:15:21;;;;;;;37.10;17.87;;;;;;;-0.07;100.00;98806.34;7385852;19;20938;-35
2023/03/10 02:17:52;;;;;;;37.67;18.13;;;;;;;-0.10;100.00;98810.41;7390316;19;20505;-33
2023/03/10 02:20:28;;;;;;;35.93;17.33;;;;;;;-0.16;100.00;98806.75;7384876;19;21103;-38
2023/03/10 02:22:57;;;;;;;37.60;18.15;;;;;;;-0.12;100.00;98807.78;7391227;19;20400;-34
2023/03/10 02:25:35;;;;;;;33.10;17.03;;;;;;;-0.12;100.00;98801.84;7386033;19;20190;-31
2023/03/10 02:28:07;;;;;;;37.60;16.17;;;;;;;-0.15;100.00;98808.47;7389210;19;20410;-35
2023/03/10 02:30:40;;;;;;;38.07;16.93;;;;;;;-0.18;100.00;98799.84;7384058;19;20431;-37
2023/03/10 02:33:12;;;;;;;37.23;18.03;;;;;;;-0.21;100.00;98798.00;7390787;19;20745;-33
2023/03/10 02:35:41;;;;;;;37.67;17.00;;;;;;;-0.25;100.00;98811.34;7384658;19;20422;-37
2023/03/10 02:38:10;;;;;;;33.40;16.17;;;;;;;-0.20;100.00;98814.09;7390132;19;20399;-33
2023/03/10 02:40:46;;;;;;;41.30;17.63;;;;;;;-0.21;100.00;98823.34;7384839;19;20431;-33
2023/03/10 02:43:19;;;;;;;36.25;18.05;;;;;;;-0.22;100.00;98819.09;7390517;19;20138;-34
2023/03/10 02:45:49;;;;;;;40.40;18.07;;;;;;;-0.22;100.00;98819.09;7385955;19;20258;-35
2023/03/10 02:48:22;;;;;;;36.92;17.15;;;;;;;-0.24;100.00;98819.78;7388594;19;21272;-36
2023/03/10 02:50:55;;;;;;;37.97;17.93;;;;;;;-0.24;100.00;98824.84;7384383;19;20201;-37
2023/03/10 02:53:26;;;;;;;34.50;17.13;;;;;;;-0.24;100.00;98825.75;7389427;19;20383;-35
2023/03/10 02:55:56;;;;;;;33.53;16.88;;;;;;;-0.28;100.00;98822.19;7392876;19;20695;-33
2023/03/10 02:58:32;;;;;;;37.25;16.77;;;;;;;-0.27;100.00;98825.56;7395182;19;20143;-35
2023/03/10 03:01:03;;;;;;;32.65;15.13;;;;;;;-0.31;100.00;98836.34;7391291;19;20201;-34
2023/03/10 03:03:33;;;;;;;38.63;17.80;;;;;;;-0.28;100.00;98833.97;7395977;19;20138;-34
2023/03/10 03:06:03;;;;;;;36.42;15.48;;;;;;;-0.28;100.00;98842.44;7392416;19;20196;-33
2023/03/10 03:08:32;;;;;;;32.37;15.53;;;;;;;-0.30;100.00;98843.16;7393295;19;20143;-31
2023/03/10 03:11:03;;;;;;;36.17;16.83;;;;;;;-0.24;100.00;98842.59;7390930;19;20956;-34
2023/03/10 03:13:35;;;;;;;35.83;15.80;;;;;;;-0.38;100.00;98844.38;7395130;19;20404;-34
2023/03/10 03:16:07;;;;;;;38.80;17.70;;;;;;;-0.34;100.00;98846.31;7392670;19;20198;-34
2023/03/10 03:18:37;;;;;;;36.10;17.40;;;;;;;-0.36;100.00;98847.91;7394568;19;20402;-33
2023/03/10 03:21:09;;;;;;;37.07;16.40;;;;;;;-0.33;100.00;98848.03;7392105;19;20442;-34
2023/03/10 03:23:39;;;;;;;40.10;18.85;;;;;;;-0.32;100.00;98849.78;7395514;19;20731;-32
2023/03/10 03:26:16;;;;;;;33.00;15.27;;;;;;;-0.31;100.00;98851.56;7391930;19;20194;-33
2023/03/10 03:28:48;;;;;;;41.90;17.80;;;;;;;-0.34;100.00;98861.50;7393060;19;20407;-36
2023/03/10 03:31:19;;;;;;;37.05;16.77;;;;;;;-0.30;100.00;98859.22;7390410;19;20805;-35
2023/03/10 03:33:48;;;;;;;38.55;16.70;;;;;;;-0.29;100.00;98863.50;7394899;19;20179;-36
2023/03/10 03:36:19;;;;;;;37.00;17.08;;;;;;;-0.25;100.00;98868.75;7391213;19;20599;-35
2023/03/10 03:38:48;;;;;;;34.78;16.95;;;;;;;-0.28;100.00;98869.44;7394523;19;20146;-34
2023/03/10 03:41:18;;;;;;;35.77;17.70;;;;;;;-0.24;100.00;98863.78;7390146;19;20201;-34
2023/03/10 03:43:50;;;;;;;36.63;16.70;;;;;;;-0.21;100.00;98863.06;7395219;19;20423;-34
2023/03/10 03:46:19;;;;;;;34.80;16.08;;;;;;;-0.30;100.00;98859.22;7391040;19;20826;-34
2023/03/10 03:48:49;;;;;;;37.30;17.45;;;;;;;-0.32;100.00;98867.53;7392700;19;20225;-33
2023/03/10 03:51:18;;;;;;;43.50;21.30;;;;;;;-0.39;100.00;98868.88;7389740;19;20567;-35
2023/03/10 03:53:48;;;;;;;36.43;16.67;;;;;;;-0.32;100.00;98870.94;7394373;19;20930;-33
2023/03/10 03:56:17;;;;;;;36.22;16.40;;;;;;;-0.43;100.00;98872.91;7390821;19;20439;-36
2023/03/10 03:58:49;;;;;;;33.90;17.38;;;;;;;-0.39;100.00;98885.72;7393212;19;20139;-33
2023/03/10 04:01:19;;;;;;;37.53;18.07;;;;;;;-0.43;100.00;98888.09;7390263;19;20198;-34
2023/03/10 04:03:49;;;;;;;37.23;17.83;;;;;;;-0.42;100.00;98899.09;7394770;19;20423;-34
2023/03/10 04:06:18;;;;;;;36.05;16.45;;;;;;;-0.45;100.00;98894.72;7390440;19;20414;-32
2023/03/10 04:08:50;;;;;;;37.97;17.60;;;;;;;-0.54;100.00;98901.81;7392824;19;20144;-36
2023/03/10 04:11:20;;;;;;;36.00;16.90;;;;;;;-0.50;100.00;98898.69;7390557;19;20528;-33
2023/03/10 04:13:52;;;;;;;39.17;17.53;;;;;;;-0.47;100.00;98893.78;7395828;19;20444;-32
2023/03/10 04:16:21;;;;;;;37.37;16.97;;;;;;;-0.55;100.00;98893.34;7390329;19;20411;-33
2023/03/10 04:18:51;;;;;;;39.35;17.35;;;;;;;-0.55;100.00;98897.56;7395009;19;20403;-34
2023/03/10 04:21:20;;;;;;;39.30;17.80;;;;;;;-0.60;100.00;98904.00;7391351;19;20202;-33
2023/03/10 04:23:50;;;;;;;36.67;18.23;;;;;;;-0.56;100.00;98905.94;7395544;19;20167;-35
2023/03/10 04:26:19;;;;;;;38.60;18.53;;;;;;;-0.53;100.00;98890.91;7391627;19;20674;-36
2023/03/10 04:28:51;;;;;;;36.25;16.75;;;;;;;-0.57;100.00;98899.09;7393296;19;20762;-32
2023/03/10 04:31:21;;;;;;;42.83;19.17;;;;;;;-0.59;100.00;98891.44;7389072;19;20198;-36
2023/03/10 04:33:50;;;;;;;37.70;17.90;;;;;;;-0.53;100.00;98885.84;7395005;19;20142;-37
2023/03/10 04:36:20;;;;;;;40.17;17.92;;;;;;;-0.65;100.00;98882.59;7391862;19;20805;-36
2023/03/10 04:38:50;;;;;;;39.28;17.73;;;;;;;-0.65;100.00;98880.06;7394370;19;20134;-35
2023/03/10 04:41:19;;;;;;;41.10;18.95;;;;;;;-0.75;100.00;98879.56;7390010;19;20198;-34
2023/03/10 04:43:51;;;;;;;40.00;18.50;;;;;;;-0.74;100.00;98870.28;7394581;19;20138;-34
2023/03/10 04:46:21;;;;;;;37.53;17.52;;;;;;;-0.68;100.00;98853.78;7389267;19;20226;-36
2023/03/10 04:48:50;;;;;;;37.60;17.35;;;;;;;-0.64;100.00;98841.28;7392780;19;20509;-36
2023/03/10 04:51:20;;;;;;;37.85;17.73;;;;;;;-0.68;100.00;98835.16;7390220;19;20194;-41
2023/03/10 04:53:49;;;;;;;38.30;17.23;;;;;;;-0.63;100.00;98822.75;7394309;19;20138;-39
2023/03/10 04:56:19;;;;;;;41.05;17.95;;;;;;;-0.76;100.00;98822.09;7390563;19;20657;-39
2023/03/10 04:58:48;;;;;;;43.03;18.40;;;;;;;-0.78;100.00;98798.31;7394088;19;20135;-36
2023/03/10 05:01:20;;;;;;;41.95;18.55;;;;;;;-0.83;100.00;98787.06;7389796;19;20198;-40
2023/03/10 05:03:50;;;;;;;35.90;16.23;;;;;;;-0.83;100.00;98782.00;7394303;19;20141;-37
2023/03/10 05:06:22;;;;;;;39.28;17.90;;;;;;;-0.88;100.00;98770.78;7390464;19;20186;-37
2023/03/10 05:08:51;;;;;;;40.30;17.95;;;;;;;-0.79;100.00;98755.19;7392898;19;20161;-35
2023/03/10 05:11:21;;;;;;;40.92;16.92;;;;;;;-0.82;100.00;98749.16;7386584;19;20190;-38
2023/03/10 05:13:50;;;;;;;42.08;18.60;;;;;;;-0.85;100.00;98732.94;7393983;19;20139;-39
2023/03/10 05:16:23;;;;;;;42.03;18.77;;;;;;;-0.83;100.00;98728.81;7388902;19;20999;-34
2023/03/10 05:18:53;;;;;;;41.67;17.48;;;;;;;-0.92;100.00;98714.00;7393438;19;20145;-38
2023/03/10 05:21:23;;;;;;;40.70;17.40;;;;;;;-0.89;100.00;98709.09;7387830;19;20198;-39
2023/03/10 05:23:52;;;;;;;41.38;17.33;;;;;;;-0.89;100.00;98690.50;7393863;19;20142;-37
2023/03/10 05:26:21;;;;;;;46.03;19.85;;;;;;;-0.86;100.00;98686.47;7387284;19;20698;-37
2023/03/10 05:28:51;;;;;;;50.38;20.98;;;;;;;-0.88;100.00;98690.59;7388281;19;20139;-36
2023/03/10 05:31:25;;;;;;;48.40;21.38;;;;;;;-0.86;100.00;98675.47;7385781;19;20206;-39
2023/03/10 05:33:55;;;;;;;63.42;25.50;;;;;;;0.28;100.00;98651.69;7389906;19;20868;-35
2023/03/10 05:36:25;;;;;;;52.67;23.13;;;;;;;0.40;100.00;98637.06;7384437;19;20217;-38
2023/03/10 05:38:55;;;;;;;96.37;36.87;;;;;;;0.34;100.00;98626.63;7389674;19;20399;-36
2023/03/10 05:41:24;;;;;;;53.07;23.03;;;;;;;0.04;100.00;98616.72;7385959;19;21103;-35
2023/03/10 05:43:53;;;;;;;68.33;27.03;;;;;;;0.24;100.00;98610.09;7392127;19;20387;-37
2023/03/10 05:46:26;;;;;;;63.10;26.37;;;;;;;0.33;100.00;98608.78;7386938;19;20414;-39
2023/03/10 05:48:55;;;;;;;51.03;20.70;;;;;;;0.04;100.00;98610.78;7392206;19;20411;-38
2023/03/10 05:51:25;;;;;;;45.50;18.70;;;;;;;-0.24;100.00;98619.53;7386757;19;20431;-37
2023/03/10 05:53:54;;;;;;;43.07;18.50;;;;;;;-0.55;100.00;98627.31;7392807;19;20394;-37
2023/03/10 05:56:24;;;;;;;42.50;18.17;;;;;;;-0.59;100.00;98624.53;7387471;19;20435;-36
2023/03/10 05:58:53;;;;;;;42.92;18.40;;;;;;;-0.72;100.00;98631.50;7392219;19;20423;-38
2023/03/10 06:01:25;;;;;;;53.67;20.00;;;;;;;-0.70;100.00;98634.13;7386256;19;20198;-37
2023/03/10 06:03:55;;;;;;;41.83;19.48;;;;;;;-0.77;100.00;98635.44;7392612;19;20159;-36
2023/03/10 06:06:24;;;;;;;44.45;17.50;;;;;;;-0.79;100.00;98644.63;7386999;19;20241;-39
2023/03/10 06:08:55;;;;;;;58.72;19.33;;;;;;;-0.77;100.00;98640.50;7391465;19;20206;-37
2023/03/10 06:11:24;;;;;;;44.15;19.25;;;;;;;-0.74;100.00;98634.72;7385428;19;20209;-35
2023/03/10 06:13:54;;;;;;;41.47;17.42;;;;;;;-0.80;100.00;98637.81;7392442;19;20139;-39
2023/03/10 06:16:27;;;;;;;39.63;17.92;;;;;;;-0.85;100.00;98641.78;7386596;19;20221;-36
2023/03/10 06:18:57;;;;;;;42.58;18.52;;;;;;;-0.85;100.00;98632.53;7391717;19;20139;-37
2023/03/10 06:21:28;;;;;;;40.03;16.98;;;;;;;-0.85;100.00;98634.19;7385751;19;20206;-34
2023/03/10 06:23:58;;;;;;;41.55;17.30;;;;;;;-1.00;100.00;98635.09;7392248;19;20148;-34
2023/03/10 06:26:27;;;;;;;42.50;18.20;;;;;;;-0.93;100.00;98625.31;7386460;19;20278;-39
2023/03/10 06:28:56;;;;;;;36.03;17.23;;;;;;;-0.86;100.00;98617.25;7392397;19;20182;-34
2023/03/10 06:31:29;;;;;;;45.67;18.33;;;;;;;-0.79;100.00;98614.25;7392509;19;20613;-36
2023/03/10 06:33:58;;;;;;;38.22;17.90;;;;;;;-0.72;100.00;98616.28;7399691;19;20619;-36
2023/03/10 06:36:31;;;;;;;40.85;17.48;;;;;;;-0.72;100.00;98611.22;7394295;19;20226;-34
2023/03/10 06:39:01;;;;;;;42.38;17.65;;;;;;;-0.75;100.00;98610.19;7399099;19;20139;-35
2023/03/10 06:41:30;;;;;;;43.55;18.02;;;;;;;-0.71;100.00;98609.59;7393518;19;20662;-36
2023/03/10 06:44:00;;;;;;;41.90;18.00;;;;;;;-0.75;100.00;98613.63;7399311;19;20143;-34
2023/03/10 06:46:32;;;;;;;37.17;16.98;;;;;;;-0.68;100.00;98610.63;7393676;19;20604;-34
2023/03/10 06:49:01;;;;;;;36.03;16.13;;;;;;;-0.72;100.00;98611.22;7397982;19;20560;-34
2023/03/10 06:51:31;;;;;;;34.35;15.50;;;;;;;-0.80;100.00;98609.97;7393389;19;20189;-37
2023/03/10 06:54:00;;;;;;;37.00;16.25;;;;;;;-0.66;100.00;98625.00;7399047;19;20163;-36
2023/03/10 06:56:29;;;;;;;38.95;17.60;;;;;;;-0.62;100.00;98617.66;7393360;19;20194;-37
2023/03/10 06:58:59;;;;;;;38.47;17.73;;;;;;;-0.61;100.00;98610.94;7398378;19;20138;-39
2023/03/10 07:01:33;;;;;;;37.95;16.58;;;;;;;-0.62;100.00;98616.78;7392405;19;20194;-37
2023/03/10 07:04:03;;;;;;;33.25;15.63;;;;;;;-0.64;100.00;98613.28;7398750;19;20135;-35
2023/03/10 07:06:32;;;;;;;36.97;16.20;;;;;;;-0.62;100.00;98611.72;7392928;19;20214;-34
2023/03/10 07:09:02;;;;;;;35.70;16.10;;;;;;;-0.51;100.00;98605.53;7397915;19;20496;-36
2023/03/10 07:11:31;;;;;;;37.65;16.65;;;;;;;-0.56;100.00;98605.31;7390845;19;20198;-36
2023/03/10 07:14:01;;;;;;;29.05;14.40;;;;;;;-0.48;100.00;98618.38;7398399;19;20139;-35
2023/03/10 07:16:33;;;;;;;36.92;17.98;;;;;;;-0.42;100.00;98622.88;7390002;19;20222;-38
2023/03/10 07:19:03;;;;;;;34.08;15.65;;;;;;;-0.46;100.00;98626.91;7395281;19;20134;-35
2023/03/10 07:21:33;;;;;;;40.58;16.00;;;;;;;-0.42;100.00;98626.28;7391894;19;20186;-34
2023/03/10 07:24:02;;;;;;;32.50;14.93;;;;;;;-0.47;100.00;98642.06;7398303;19;20159;-33
2023/03/10 07:26:32;;;;;;;34.33;15.40;;;;;;;-0.42;100.00;98645.69;7393200;19;20456;-39
2023/03/10 07:29:01;;;;;;;39.10;17.17;;;;;;;-0.36;100.00;98650.22;7396274;19;20147;-37
2023/03/10 07:31:35;;;;;;;33.20;16.30;;;;;;;-0.38;100.00;98652.66;7389627;19;20190;-36
2023/03/10 07:34:04;;;;;;;46.05;20.92;;;;;;;-0.37;100.00;98659.47;7396931;19;20770;-35
2023/03/10 07:36:34;;;;;;;40.95;17.52;;;;;;;-0.33;100.00;98661.38;7391514;19;20305;-33
2023/03/10 07:39:03;;;;;;;43.88;17.13;;;;;;;-0.35;100.00;98664.63;7395537;19;20500;-34
2023/03/10 07:41:45;;;;;;;32.70;16.30;;;;;;;-0.31;100.00;98672.44;7393012;19;20190;-35
2023/03/10 07:44:14;;;;;;;38.72;17.67;;;;;;;-0.21;100.00;98657.72;7397233;19;20166;-37
2023/03/10 07:46:46;;;;;;;44.97;17.90;;;;;;;-0.33;100.00;98668.97;7391486;19;20659;-35
2023/03/10 07:49:16;;;;;;;36.20;17.05;;;;;;;-0.24;100.00;98670.22;7395915;19;20149;-35
2023/03/10 07:51:45;;;;;;;36.97;16.63;;;;;;;-0.20;100.00;98678.06;7390857;19;20194;-35
2023/03/10 07:54:15;;;;;;;41.80;16.37;;;;;;;-0.15;100.00;98674.09;7396906;19;20415;-37
2023/03/10 07:56:44;;;;;;;32.83;15.77;;;;;;;-0.21;100.00;98690.69;7391269;19;20486;-37
2023/03/10 07:59:14;;;;;;;32.53;15.40;;;;;;;0.00;100.00;98685.84;7395809;19;20134;-33
2023/03/10 08:01:46;;;;;;;36.93;16.10;;;;;;;0.21;100.00;98686.03;7391219;19;20190;-34
2023/03/10 08:04:15;;;;;;;42.17;17.83;;;;;;;0.33;100.00;98692.50;7396948;19;20412;-37
2023/03/10 08:06:46;;;;;;;31.00;14.90;;;;;;;0.11;100.00;98699.06;7390987;19;20446;-36
2023/03/10 08:09:16;;;;;;;31.40;15.27;;;;;;;-0.14;100.00;98702.88;7392357;19;20450;-38
2023/03/10 08:11:45;;;;;;;42.93;17.23;;;;;;;-0.17;100.00;98723.00;7387990;19;20454;-33
2023/03/10 08:14:18;;;;;;;31.23;15.27;;;;;;;-0.12;100.00;98730.84;7395983;19;20386;-35
2023/03/10 08:16:52;;;;;;;34.80;15.40;;;;;;;-0.10;100.00;98731.81;7390269;19;20458;-35
2023/03/10 08:19:21;;;;;;;38.20;16.10;;;;;;;-0.15;100.00;98739.16;7393732;19;20392;-36
2023/03/10 08:21:52;;;;;;;41.40;19.10;;;;;;;-0.14;100.00;98736.69;7390744;19;20495;-36
2023/03/10 08:24:21;;;;;;;32.53;15.43;;;;;;;-0.15;100.00;98747.63;7394586;19;20407;-33
2023/03/10 08:26:51;;;;;;;31.20;15.50;;;;;;;-0.22;100.00;98745.56;7390486;19;20733;-36
2023/03/10 08:29:21;;;;;;;35.47;16.40;;;;;;;-0.11;100.00;98752.88;7395079;19;20947;-34
2023/03/10 08:31:53;;;;;;;30.47;15.87;;;;;;;-0.10;100.00;98754.63;7392611;19;20426;-36
2023/03/10 08:34:23;;;;;;;39.63;17.97;;;;;;;-0.04;100.00;98752.41;7393924;19;20403;-35
2023/03/10 08:36:52;;;;;;;39.50;15.53;;;;;;;-0.07;100.00;98765.78;7394814;19;20406;-35
2023/03/10 08:39:21;;;;;;;29.00;14.37;;;;;;;-0.12;100.00;98768.88;7391900;19;20379;-34
2023/03/10 08:41:51;;;;;;;31.10;15.80;;;;;;;-0.07;100.00;98775.03;7394631;19;20426;-34
2023/03/10 08:44:21;;;;;;;34.83;15.85;;;;;;;-0.01;100.00;98775.38;7395208;19;20427;-35
2023/03/10 08:46:53;;;;;;;34.50;15.97;;;;;;;-0.09;100.00;98781.72;7393996;19;20167;-35
2023/03/10 08:49:23;;;;;;;36.83;16.77;;;;;;;-0.06;100.00;98792.03;7392161;19;20411;-38
2023/03/10 08:51:53;;;;;;;47.00;18.27;;;;;;;0.03;100.00;98792.50;7390112;19;20772;-36
2023/03/10 08:54:24;;;;;;;36.17;15.27;;;;;;;0.07;100.00;98794.41;7393355;19;20767;-34
2023/03/10 08:56:53;;;;;;;39.70;16.87;;;;;;;0.08;100.00;98803.75;7394246;19;20926;-35
2023/03/10 08:59:23;;;;;;;30.60;14.70;;;;;;;0.03;100.00;98800.09;7392367;19;20455;-35
2023/03/10 09:01:55;;;;;;;35.42;15.20;;;;;;;0.03;100.00;98801.75;7393752;19;20738;-37
2023/03/10 09:04:24;;;;;;;41.33;17.83;;;;;;;0.03;100.00;98810.25;7392470;19;20495;-35
2023/03/10 09:06:54;;;;;;;33.83;14.80;;;;;;;-0.02;100.00;98804.94;7394082;19;20139;-35
2023/03/10 09:09:23;;;;;;;33.30;14.03;;;;;;;0.04;100.00;98812.00;7392178;19;20423;-36
2023/03/10 09:11:53;;;;;;;61.67;24.10;;;;;;;0.12;100.00;98808.19;7390255;19;20439;-38
2023/03/10 09:14:22;;;;;;;25.70;12.93;;;;;;;0.09;100.00;98818.19;7392923;19;20387;-36
2023/03/10 09:16:54;;;;;;;30.67;14.23;;;;;;;0.03;100.00;98810.25;7390905;19;20786;-39
2023/03/10 09:19:24;;;;;;;34.93;14.10;;;;;;;0.06;100.00;98817.16;7391836;19;20852;-37
2023/03/10 09:21:54;;;;;;;30.03;14.67;;;;;;;0.06;100.00;98817.16;7390860;19;20450;-35
2023/03/10 09:24:23;;;;;;;36.73;13.73;;;;;;;0.08;100.00;98826.59;7392403;19;20399;-35
2023/03/10 09:26:54;;;;;;;30.83;15.27;;;;;;;0.03;100.00;98825.47;7391000;19;20453;-34
2023/03/10 09:29:24;;;;;;;34.73;15.97;;;;;;;0.02;100.00;98825.38;7390326;19;20470;-36
2023/03/10 09:32:13;;;;;;;33.90;14.63;;;;;;;-0.09;100.00;98824.81;7391516;19;20517;-34
2023/03/10 09:34:44;;;;;;;30.63;14.30;;;;;;;-0.11;100.00;98827.25;7383965;19;20411;-33
2023/03/10 09:37:13;;;;;;;32.00;13.77;;;;;;;-0.07;100.00;98824.09;7393530;19;20413;-34
2023/03/10 09:39:43;;;;;;;29.53;15.07;;;;;;;-0.04;100.00;98831.00;7389069;19;20439;-35
2023/03/10 09:42:32;;;;;;;36.90;16.20;;;;;;;-0.04;100.00;98821.72;7393143;19;20410;-37
2023/03/10 09:45:19;;;;;;;32.47;15.83;;;;;;;0.03;100.00;98838.16;7389672;19;20436;-35
2023/03/10 09:48:11;;;;;;;31.90;14.70;;;;;;;-0.03;100.00;98831.09;7392088;19;20399;-32
2023/03/10 09:50:42;;;;;;;38.03;16.77;;;;;;;-0.06;100.00;98828.38;7387762;19;20475;-37
2023/03/10 09:53:23;;;;;;;35.40;14.90;;;;;;;-0.09;100.00;98838.38;7393093;19;20919;-34
2023/03/10 09:55:53;;;;;;;31.80;14.37;;;;;;;-0.05;100.00;98840.25;7389166;19;20784;-38
2023/03/10 09:58:30;;;;;;;36.87;15.50;;;;;;;0.03;100.00;98838.16;7391040;19;20408;-35
2023/03/10 10:01:01;;;;;;;32.60;15.13;;;;;;;0.02;100.00;98835.53;7389193;19;20785;-33
2023/03/10 10:03:37;;;;;;;33.87;14.70;;;;;;;0.11;100.00;98834.34;7395833;19;20407;-36
2023/03/10 10:06:23;;;;;;;35.70;15.77;;;;;;;0.07;100.00;98837.53;7393828;19;20451;-36
2023/03/10 10:08:59;;;;;;;35.73;14.37;;;;;;;-0.05;100.00;98839.41;7399397;19;20401;-37
2023/03/10 10:11:35;;;;;;;38.90;15.70;;;;;;;-0.02;100.00;98839.56;7394549;19;20421;-33
2023/03/10 10:14:17;;;;;;;38.87;16.00;;;;;;;-0.02;100.00;98837.91;7398700;19;20431;-33
2023/03/10 10:17:02;;;;;;;37.47;15.20;;;;;;;-0.05;100.00;98841.94;7398384;19;20803;-35
2023/03/10 10:19:34;;;;;;;35.60;16.10;;;;;;;0.03;100.00;98842.34;7394200;19;20422;-33
2023/03/10 10:22:10;;;;;;;35.20;15.47;;;;;;;-0.02;100.00;98834.50;7395461;19;20495;-36
2023/03/10 10:24:40;;;;;;;32.57;14.90;;;;;;;0.02;100.00;98841.47;7393364;19;20414;-35
2023/03/10 10:27:09;;;;;;;40.70;16.50;;;;;;;0.05;100.00;98840.78;7395215;19;20414;-35
2023/03/10 10:29:42;;;;;;;35.13;16.00;;;;;;;-0.01;100.00;98837.13;7391541;19;20776;-34
2023/03/10 10:32:13;;;;;;;38.60;16.30;;;;;;;-0.01;100.00;98836.22;7394370;19;20427;-33
2023/03/10 10:34:48;;;;;;;34.40;14.50;;;;;;;-0.02;100.00;98834.50;7393124;19;20406;-35
2023/03/10 10:37:30;;;;;;;40.40;16.83;;;;;;;0.03;100.00;98833.06;7396967;19;20390;-35
2023/03/10 10:40:05;;;;;;;39.05;17.65;;;;;;;0.06;100.00;98830.69;7391895;19;20459;-32
2023/03/10 10:42:37;;;;;;;38.63;15.87;;;;;;;0.17;100.00;98827.84;7397202;19;20142;-35
2023/03/10 10:45:25;;;;;;;35.00;15.80;;;;;;;0.16;100.00;98829.53;7393325;19;20434;-36
2023/03/10 10:47:55;;;;;;;37.90;17.40;;;;;;;0.03;100.00;98832.19;7396742;19;20436;-35
2023/03/10 10:50:28;;;;;;;38.00;16.73;;;;;;;0.11;100.00;98824.19;7391545;19;20434;-34
2023/03/10 10:53:16;;;;;;;37.47;16.93;;;;;;;0.14;100.00;98826.03;7395429;19;20416;-31
2023/03/10 10:55:46;;;;;;;41.33;19.37;;;;;;;0.17;100.00;98822.78;7393076;19;20442;-33
2023/03/10 10:58:28;;;;;;;43.03;18.00;;;;;;;0.16;100.00;98821.03;7396727;19;20420;-34
2023/03/10 11:01:00;;;;;;;39.83;17.53;;;;;;;0.15;100.00;98822.69;7392911;19;20471;-32
2023/03/10 11:03:32;;;;;;;40.20;15.37;;;;;;;0.21;100.00;98822.16;7395781;19;20399;-34
2023/03/10 11:06:14;;;;;;;43.13;18.10;;;;;;;0.23;100.00;98816.38;7384065;19;20897;-33
2023/03/10 11:08:49;;;;;;;41.30;18.93;;;;;;;0.33;100.00;98816.84;7394631;19;20391;-35
2023/03/10 11:11:28;;;;;;;43.80;18.63;;;;;;;0.38;100.00;98816.28;7393733;19;20429;-32
2023/03/10 11:14:09;;;;;;;39.00;17.40;;;;;;;0.55;100.00;98813.72;7396798;19;20407;-30
2023/03/10 11:16:45;;;;;;;50.40;23.50;;;;;;;0.64;100.00;98809.13;7394326;19;20434;-34
2023/03/10 11:19:22;;;;;;;38.40;18.67;;;;;;;0.79;100.00;98803.94;7397646;19;20403;-36
2023/03/10 11:21:58;;;;;;;40.07;17.37;;;;;;;0.72;100.00;98804.41;7394452;19;20431;-35
2023/03/10 11:24:32;;;;;;;46.37;19.57;;;;;;;0.80;100.00;98799.72;7396648;19;20443;-35
2023/03/10 11:27:10;;;;;;;41.20;20.10;;;;;;;0.94;100.00;98797.88;7395262;19;20434;-35
2023/03/10 11:29:52;;;;;;;37.57;18.77;;;;;;;0.89;100.00;98795.13;7392766;19;20419;-34
2023/03/10 11:32:27;;;;;;;41.90;17.20;;;;;;;0.73;100.00;98802.75;7397224;19;20415;-35